Time;durP1;ratioP1;P1;durP2;ratioP2;P2;SDS_P1;SDS_P2;PMS_P1;PMS_P2;Temp;Humidity;BMP_temperature;BMP_pressure;BME280_temperature;BME280_humidity;BME280_pressure;Samples;Min_cycle;Max_cycle;Signal;HPM_P1;HPM_P2
2022/05/18 00:01:41;;;;;;;3.42;2.00;;;18.50;99.90;;;;;;20810257;28;20060;-39
2022/05/18 00:11:42;;;;;;;3.08;1.83;;;18.50;99.90;;;;;;20809655;28;20052;-39
2022/05/18 00:21:44;;;;;;;4.22;2.42;;;18.30;99.90;;;;;;20802655;28;20048;-39
2022/05/18 00:31:48;;;;;;;3.58;2.05;;;18.20;99.90;;;;;;20804244;28;20037;-39
2022/05/18 00:41:49;;;;;;;3.28;1.63;;;18.20;99.90;;;;;;20820978;28;20044;-39
2022/05/18 00:51:54;;;;;;;4.68;2.50;;;18.00;99.90;;;;;;20812693;28;20515;-39
2022/05/18 01:01:56;;;;;;;4.05;2.20;;;17.80;99.90;;;;;;20811073;28;20064;-39
2022/05/18 01:11:57;;;;;;;5.07;2.35;;;17.70;99.90;;;;;;20804619;28;20060;-39
2022/05/18 01:22:29;;;;;;;5.20;2.60;;;17.60;99.90;;;;;;20806196;28;20041;-39
2022/05/18 01:32:45;;;;;;;4.88;2.22;;;17.50;99.90;;;;;;20798814;28;20493;-39
2022/05/18 01:42:54;;;;;;;12.85;3.72;;;17.10;99.90;;;;;;20797323;28;20512;-39
2022/05/18 01:52:55;;;;;;;5.47;3.00;;;16.90;99.90;;;;;;20795933;28;20052;-39
2022/05/18 02:02:58;;;;;;;5.47;2.38;;;16.70;99.90;;;;;;20800341;28;20269;-39
2022/05/18 02:13:00;;;;;;;4.88;2.35;;;16.60;99.90;;;;;;20796196;28;20349;-39
2022/05/18 02:23:03;;;;;;;7.85;3.83;;;16.60;99.90;;;;;;20797118;28;20156;-39
2022/05/18 02:33:04;;;;;;;5.03;2.97;;;16.70;99.90;;;;;;20796295;28;20635;-39
2022/05/18 02:43:06;;;;;;;7.55;3.58;;;16.60;99.90;;;;;;20797773;28;20186;-39
2022/05/18 02:53:07;;;;;;;7.47;4.10;;;16.60;99.90;;;;;;20793909;28;20037;-39
2022/05/18 03:03:08;;;;;;;6.95;4.25;;;16.60;99.90;;;;;;20794956;28;20136;-39
2022/05/18 03:13:10;;;;;;;6.18;4.10;;;16.50;99.90;;;;;;20799802;28;20076;-39
2022/05/18 03:33:31;;;;;;;8.15;4.10;;;16.60;99.90;;;;;;20787839;28;20151;-39
2022/05/18 03:43:32;;;;;;;11.32;4.95;;;16.70;99.90;;;;;;20803510;28;20055;-39
2022/05/18 03:53:33;;;;;;;11.43;4.70;;;16.70;99.90;;;;;;20805886;28;20084;-39
2022/05/18 04:03:37;;;;;;;12.55;5.65;;;16.80;99.90;;;;;;20807656;28;20038;-39
2022/05/18 04:13:38;;;;;;;5.55;2.95;;;16.90;99.90;;;;;;20804823;28;20393;-39
2022/05/18 04:23:41;;;;;;;5.97;4.10;;;16.90;99.90;;;;;;20805735;28;20041;-39
2022/05/18 04:33:42;;;;;;;8.55;4.18;;;17.00;99.90;;;;;;20806102;28;20041;-39
2022/05/18 04:43:43;;;;;;;9.02;6.03;;;17.10;99.90;;;;;;20801567;28;20485;-39
2022/05/18 04:53:44;;;;;;;10.63;6.40;;;17.20;99.90;;;;;;20800179;28;20393;-39
2022/05/18 05:03:45;;;;;;;11.45;4.38;;;17.70;99.90;;;;;;20798811;28;20082;-39
2022/05/18 05:13:46;;;;;;;9.13;4.50;;;18.10;99.90;;;;;;20795268;28;20053;-39
2022/05/18 05:23:49;;;;;;;10.13;5.53;;;18.10;99.90;;;;;;20803265;28;20037;-39
2022/05/18 05:33:50;;;;;;;11.38;6.30;;;18.20;99.90;;;;;;20799912;28;20045;-39
2022/05/18 05:43:53;;;;;;;7.82;4.82;;;18.30;99.90;;;;;;20808006;28;20072;-39
2022/05/18 05:53:54;;;;;;;7.60;3.78;;;18.90;99.90;;;;;;20794401;28;20052;-39
2022/05/18 06:03:55;;;;;;;8.05;4.07;;;19.30;99.90;;;;;;20799736;28;20052;-39
2022/05/18 06:13:56;;;;;;;9.50;4.75;;;19.40;99.90;;;;;;20795595;28;20064;-39
2022/05/18 06:23:57;;;;;;;8.77;4.85;;;19.50;99.90;;;;;;20802428;28;20478;-39
2022/05/18 06:33:58;;;;;;;10.55;5.38;;;19.40;99.90;;;;;;20799413;28;20057;-39
2022/05/18 06:44:02;;;;;;;9.10;5.50;;;19.40;99.90;;;;;;20793497;28;20051;-39
2022/05/18 06:54:04;;;;;;;8.10;4.72;;;19.50;99.90;;;;;;20794008;28;20041;-39
2022/05/18 07:04:06;;;;;;;10.40;4.28;;;19.60;99.90;;;;;;20805337;28;20100;-39
2022/05/18 07:14:07;;;;;;;6.60;3.72;;;20.10;99.90;;;;;;20792282;28;20045;-39
2022/05/18 07:24:09;;;;;;;5.80;3.13;;;20.10;99.90;;;;;;20797189;28;20421;-39
2022/05/18 07:34:10;;;;;;;6.05;3.35;;;20.20;99.90;;;;;;20782661;28;20033;-39
2022/05/18 07:44:11;;;;;;;5.05;2.20;;;20.20;99.90;;;;;;20798997;28;20789;-39
2022/05/18 07:54:13;;;;;;;6.85;3.42;;;20.10;99.90;;;;;;20780101;28;20045;-39
2022/05/18 08:04:14;;;;;;;7.25;2.55;;;20.20;99.90;;;;;;20793480;28;20034;-39
2022/05/18 08:24:36;;;;;;;4.28;2.47;;;20.90;99.90;;;;;;20785270;28;20693;-39
2022/05/18 08:34:37;;;;;;;6.22;2.88;;;21.00;99.90;;;;;;20803226;28;20041;-39
2022/05/18 08:44:38;;;;;;;6.78;2.97;;;20.80;99.90;;;;;;20801629;28;20029;-39
2022/05/18 08:55:09;;;;;;;5.18;2.10;;;21.00;99.90;;;;;;20792098;28;20060;-40
2022/05/18 09:05:16;;;;;;;5.55;2.63;;;21.10;99.90;;;;;;20799973;28;20470;-39
2022/05/18 09:15:25;;;;;;;8.50;4.05;;;21.30;99.90;;;;;;20798784;28;20041;-39
2022/05/18 09:25:40;;;;;;;8.52;3.20;;;21.50;99.90;;;;;;20791749;28;20036;-39
2022/05/18 09:35:53;;;;;;;7.45;3.55;;;21.80;99.90;;;;;;20790983;28;20737;-39
2022/05/18 09:45:56;;;;;;;10.82;2.40;;;22.10;99.90;;;;;;20791593;28;20033;-39
2022/05/18 09:55:57;;;;;;;4.82;2.47;;;22.30;99.90;;;;;;20786036;28;20414;-40
2022/05/18 10:16:44;;;;;;;5.50;3.15;;;22.70;99.90;;;;;;20814357;28;20362;-39
2022/05/18 10:27:07;;;;;;;4.18;2.20;;;22.80;99.90;;;;;;20830240;28;20048;-39
2022/05/18 10:37:12;;;;;;;8.23;3.03;;;23.10;99.90;;;;;;20832821;28;20066;-39
2022/05/18 10:47:27;;;;;;;5.55;2.20;;;23.40;99.90;;;;;;20746049;28;20044;-39
2022/05/18 10:57:40;;;;;;;8.60;3.28;;;23.40;99.90;;;;;;20785301;28;20048;-39
2022/05/18 11:07:41;;;;;;;3.58;1.75;;;23.30;99.90;;;;;;20781477;28;20369;-39
2022/05/18 11:18:20;;;;;;;4.10;1.92;;;23.10;99.90;;;;;;20786227;28;20175;-39
2022/05/18 11:28:48;;;;;;;4.03;1.10;;;22.90;99.90;;;;;;20770105;28;20033;-39
2022/05/18 11:39:07;;;;;;;3.80;1.60;;;23.10;99.90;;;;;;20775763;28;20431;-39
2022/05/18 11:50:06;;;;;;;4.05;1.95;;;24.10;99.90;;;;;;20774174;28;20842;-39
2022/05/18 12:10:49;;;;;;;2.45;1.13;;;24.60;99.90;;;;;;20777558;28;20343;-39
2022/05/18 12:20:53;;;;;;;3.08;1.23;;;24.80;99.90;;;;;;20765462;28;20256;-39
2022/05/18 12:30:55;;;;;;;4.18;1.95;;;25.10;99.90;;;;;;20767876;28;20753;-39
2022/05/18 12:40:56;;;;;;;2.50;1.10;;;25.10;99.90;;;;;;20779169;28;20052;-39
2022/05/18 12:51:06;;;;;;;2.80;1.67;;;25.40;99.90;;;;;;20778141;28;20502;-39
2022/05/18 13:01:19;;;;;;;2.28;1.58;;;25.80;99.90;;;;;;20800983;28;20037;-40
2022/05/18 13:11:20;;;;;;;2.22;1.17;;;25.40;99.90;;;;;;20809388;28;20354;-39
2022/05/18 13:21:28;;;;;;;2.10;0.70;;;25.40;99.90;;;;;;20801947;28;20152;-39
2022/05/18 13:31:29;;;;;;;2.92;1.55;;;24.80;99.90;;;;;;20811648;28;20045;-39
2022/05/18 13:41:31;;;;;;;2.65;0.73;;;25.40;99.90;;;;;;20811057;28;20051;-39
2022/05/18 13:51:40;;;;;;;1.67;0.70;;;25.60;99.90;;;;;;20817632;28;20466;-39
2022/05/18 14:01:45;;;;;;;1.95;1.00;;;25.50;99.90;;;;;;20826791;28;20040;-39
2022/05/18 14:11:47;;;;;;;4.47;1.35;;;25.00;99.90;;;;;;20814742;28;20429;-39
2022/05/18 14:21:49;;;;;;;3.45;1.00;;;25.00;99.90;;;;;;20817866;28;20053;-38
2022/05/18 14:31:54;;;;;;;2.72;1.20;;;24.90;99.90;;;;;;20799389;28;20154;-39
2022/05/18 14:41:56;;;;;;;2.15;0.80;;;24.90;99.90;;;;;;20812859;28;20052;-39
2022/05/18 14:52:00;;;;;;;3.80;1.95;;;24.90;99.90;;;;;;20768427;28;20433;-39
2022/05/18 15:02:05;;;;;;;2.50;1.23;;;24.90;99.90;;;;;;20800883;28;20041;-39
2022/05/18 15:12:17;;;;;;;2.05;0.80;;;25.00;99.90;;;;;;20817327;28;20064;-39
2022/05/18 15:22:31;;;;;;;1.98;0.90;;;24.70;99.90;;;;;;20490691;28;112198;-40
2022/05/18 15:32:36;;;;;;;2.17;0.77;;;24.70;99.90;;;;;;20713516;28;20135;-39
2022/05/18 15:42:37;;;;;;;9.52;1.00;;;24.40;99.90;;;;;;20758389;28;20037;-39
2022/05/18 15:52:42;;;;;;;1.15;0.70;;;24.20;99.90;;;;;;20754149;28;20806;-39
2022/05/18 16:02:44;;;;;;;3.20;0.88;;;24.20;99.90;;;;;;20759378;28;20030;-40
2022/05/18 16:12:46;;;;;;;1.55;0.80;;;24.00;99.90;;;;;;20768940;28;20057;-39
2022/05/18 16:22:49;;;;;;;10.68;2.75;;;23.80;99.90;;;;;;20748623;28;20469;-39
2022/05/18 16:32:50;;;;;;;1.83;0.88;;;23.70;99.90;;;;;;20748170;28;20049;-39
2022/05/18 16:42:52;;;;;;;0.60;0.30;;;23.50;99.90;;;;;;20747256;28;20449;-39
2022/05/18 16:52:54;;;;;;;1.33;0.85;;;23.20;99.90;;;;;;20756430;28;20042;-39
2022/05/18 17:02:55;;;;;;;0.80;0.50;;;23.30;99.90;;;;;;20757646;28;20524;-39
2022/05/18 17:12:56;;;;;;;2.47;0.68;;;23.00;99.90;;;;;;20720679;28;20046;-39
2022/05/18 17:22:57;;;;;;;2.53;0.95;;;22.80;99.90;;;;;;20737645;28;20056;-39
2022/05/18 17:33:00;;;;;;;0.98;0.40;;;22.90;99.90;;;;;;20743811;28;20065;-39
2022/05/18 17:43:02;;;;;;;0.98;0.38;;;22.70;99.90;;;;;;20725255;28;20503;-39
2022/05/18 17:53:03;;;;;;;1.52;0.60;;;22.70;99.90;;;;;;20743923;28;20346;-40
2022/05/18 18:03:06;;;;;;;2.08;1.23;;;22.60;99.90;;;;;;20734945;28;20037;-39
2022/05/18 18:13:07;;;;;;;3.92;1.75;;;22.30;99.90;;;;;;20737643;28;20402;-39
2022/05/18 18:23:16;;;;;;;1.95;1.05;;;22.00;99.90;;;;;;20737068;28;20042;-39
2022/05/18 18:33:17;;;;;;;2.40;1.25;;;21.80;99.90;;;;;;20732431;28;20042;-39
2022/05/18 18:43:32;;;;;;;4.40;1.35;;;21.60;99.90;;;;;;20726779;28;20040;-39
2022/05/18 19:03:52;;;;;;;2.40;0.80;;;21.20;99.90;;;;;;20718936;28;20045;-39
2022/05/18 19:13:53;;;;;;;3.00;1.20;;;21.00;99.90;;;;;;20711348;28;20045;-39
2022/05/18 19:23:58;;;;;;;2.15;0.75;;;20.90;99.90;;;;;;20728195;28;20061;-39
2022/05/18 19:33:59;;;;;;;1.50;0.68;;;20.80;99.90;;;;;;20725412;28;20482;-39
2022/05/18 19:44:01;;;;;;;5.65;1.13;;;20.60;99.90;;;;;;20722191;28;20377;-39
2022/05/18 19:54:02;;;;;;;2.20;1.17;;;20.40;99.90;;;;;;20741239;28;20038;-39
2022/05/18 20:04:03;;;;;;;2.72;1.10;;;20.30;99.90;;;;;;20734483;28;20033;-39
2022/05/18 20:14:07;;;;;;;4.53;1.45;;;20.20;99.90;;;;;;20730379;28;20049;-39
2022/05/18 20:24:09;;;;;;;1.67;0.95;;;19.90;99.90;;;;;;20731238;28;20037;-39
2022/05/18 20:34:10;;;;;;;1.25;0.40;;;19.70;99.90;;;;;;20730344;28;20049;-39
2022/05/18 20:44:13;;;;;;;1.88;0.80;;;19.60;99.90;;;;;;20724355;28;20177;-39
2022/05/18 20:54:14;;;;;;;2.70;0.90;;;19.30;99.90;;;;;;20737823;28;20053;-39
2022/05/18 21:04:17;;;;;;;2.60;1.02;;;19.10;99.90;;;;;;20722094;28;22065;-39
2022/05/18 21:14:19;;;;;;;7.28;1.70;;;19.10;99.90;;;;;;20716303;28;20043;-39
2022/05/18 21:24:20;;;;;;;1.73;0.70;;;19.10;99.90;;;;;;20721315;28;20045;-39
2022/05/18 21:34:23;;;;;;;2.88;1.85;;;18.90;99.90;;;;;;20725864;28;20045;-39
2022/05/18 21:44:25;;;;;;;2.10;1.23;;;18.70;99.90;;;;;;20699132;28;20038;-39
2022/05/18 21:54:26;;;;;;;2.88;1.38;;;18.60;99.90;;;;;;20706259;28;20276;-39
2022/05/18 22:04:29;;;;;;;6.32;2.75;;;18.60;99.90;;;;;;20703723;28;20045;-39
2022/05/18 22:14:33;;;;;;;4.18;1.73;;;18.60;99.90;;;;;;20694423;28;20041;-39
2022/05/18 22:24:36;;;;;;;2.45;1.38;;;18.40;99.90;;;;;;20703104;28;20034;-43
2022/05/18 22:34:38;;;;;;;3.63;1.48;;;18.30;99.90;;;;;;20704092;28;20052;-39
2022/05/18 22:44:46;;;;;;;3.05;1.50;;;18.20;99.90;;;;;;20691695;28;20029;-39
2022/05/18 22:54:47;;;;;;;3.90;1.77;;;18.20;99.90;;;;;;20697839;28;20116;-39
2022/05/18 23:04:48;;;;;;;4.75;2.00;;;18.00;99.90;;;;;;20695659;28;20467;-39
2022/05/18 23:14:49;;;;;;;3.03;1.77;;;18.00;99.90;;;;;;20704951;28;20065;-39
2022/05/18 23:24:50;;;;;;;5.88;2.13;;;17.90;99.90;;;;;;20702939;28;20045;-39
2022/05/18 23:34:52;;;;;;;3.20;1.45;;;18.00;99.90;;;;;;20698376;28;20397;-39
2022/05/18 23:44:53;;;;;;;7.05;1.65;;;18.10;99.90;;;;;;20699006;28;20135;-39
2022/05/18 23:54:54;;;;;;;3.17;1.73;;;18.10;99.90;;;;;;20705449;28;20034;-39
